createdAt,value
2018-05-07T03:42:21.091Z,50.40
2018-05-07T03:52:25.141Z,50.40
2018-05-07T04:02:28.376Z,50.40
2018-05-07T04:12:31.593Z,50.60
2018-05-07T04:22:52.717Z,50.40
2018-05-07T04:32:55.898Z,50.30
2018-05-07T04:42:59.129Z,50.40
2018-05-07T04:53:03.071Z,50.40
2018-05-07T05:03:07.160Z,50.40
2018-05-07T05:13:10.343Z,50.40
2018-05-07T05:23:13.918Z,50.30
2018-05-07T05:33:17.096Z,50.30
2018-05-07T05:43:20.279Z,50.30
2018-05-07T05:53:23.446Z,50.30
2018-05-07T06:03:26.660Z,50.30
2018-05-07T06:13:29.906Z,50.30
2018-05-07T06:23:33.088Z,50.40
2018-05-07T06:33:37.148Z,50.30
2018-05-07T06:43:40.367Z,50.20
2018-05-07T06:53:43.615Z,50.30
2018-05-07T07:03:46.789Z,50.20
2018-05-07T07:13:50.735Z,50.30
2018-05-07T07:23:53.908Z,50.20
2018-05-07T07:33:57.228Z,50.30
2018-05-07T07:44:01.395Z,50.20
2018-05-07T07:54:05.354Z,50.20
2018-05-07T08:04:09.324Z,50.20
2018-05-07T08:14:13.272Z,50.20
2018-05-07T08:24:16.499Z,50.20
2018-05-07T08:34:19.761Z,50.20
2018-05-07T08:44:23.713Z,50.90
2018-05-07T08:54:27.916Z,50.20
2018-05-07T09:04:31.287Z,50.20
2018-05-07T09:14:34.471Z,50.30
2018-05-07T09:24:37.689Z,50.30
2018-05-07T09:34:40.981Z,50.20
2018-05-07T09:44:44.232Z,50.30
2018-05-07T09:54:47.553Z,50.20
2018-05-07T10:04:51.485Z,50.30
2018-05-07T10:14:54.656Z,50.30
2018-05-07T10:24:58.639Z,50.40
2018-05-07T10:35:01.812Z,50.30
2018-05-07T10:45:04.994Z,50.30
2018-05-07T10:55:08.228Z,50.30
2018-05-07T11:05:12.917Z,50.30
2018-05-07T11:15:16.098Z,50.30
2018-05-07T11:25:19.405Z,50.40
2018-05-07T11:35:23.455Z,50.20
2018-05-07T15:40:14.690Z,50.60
2018-05-07T15:50:17.968Z,50.60
2018-05-07T16:00:22.084Z,50.60
2018-05-07T16:10:25.292Z,50.50
2018-05-07T16:20:28.539Z,50.60
2018-05-07T16:30:31.750Z,50.60
2018-05-07T16:40:35.773Z,50.50
2018-05-07T16:50:38.937Z,50.50
2018-05-07T17:00:42.107Z,50.40
2018-05-07T17:10:46.109Z,50.50
2018-05-07T17:20:49.298Z,50.40
2018-05-07T17:30:52.481Z,50.40
2018-05-07T17:40:56.748Z,50.50
2018-05-07T17:50:59.997Z,50.40
2018-05-07T18:01:03.219Z,50.40
2018-05-07T18:11:06.543Z,50.40
2018-05-07T18:21:11.287Z,50.60
2018-05-07T18:31:14.461Z,50.40
2018-05-07T18:41:18.403Z,50.40
2018-05-07T18:51:21.606Z,50.40
2018-05-07T19:01:24.860Z,50.40
2018-05-07T19:11:28.207Z,50.40
2018-05-07T19:21:31.392Z,50.40
2018-05-07T19:31:35.322Z,50.40
2018-05-07T19:41:38.502Z,50.40
2018-05-07T19:51:42.520Z,50.40
2018-05-07T20:01:45.721Z,50.30
2018-05-07T20:11:48.978Z,50.30
2018-05-07T20:21:52.194Z,50.30
2018-05-07T20:31:56.127Z,50.20
2018-05-07T20:41:59.320Z,50.20
2018-05-07T20:52:02.494Z,50.20
2018-05-07T21:02:05.680Z,50.20
2018-05-07T21:12:09.742Z,50.20
2018-05-07T21:22:13.711Z,50.10
2018-05-07T21:32:16.903Z,50.00
2018-05-07T21:42:20.240Z,50.00
2018-05-07T21:52:23.428Z,50.00
2018-05-07T22:02:26.720Z,50.00
2018-05-07T22:12:29.929Z,50.00
2018-05-07T22:22:33.859Z,50.00
2018-05-07T22:32:37.052Z,49.90
2018-05-07T22:42:41.328Z,49.90
2018-05-07T22:52:44.567Z,49.90
2018-05-07T23:02:50.515Z,49.90
2018-05-07T23:12:53.775Z,49.90
2018-05-07T23:22:56.962Z,49.80
2018-05-07T23:33:01.048Z,49.80
2018-05-07T23:43:04.244Z,49.80
2018-05-07T23:53:08.185Z,49.80
